Time;durP1;ratioP1;P1;durP2;ratioP2;P2;SDS_P1;SDS_P2;PMS_P1;PMS_P2;Temp;Humidity;BMP_temperature;BMP_pressure;BME280_temperature;BME280_humidity;BME280_pressure;Samples;Min_cycle;Max_cycle;Signal;HPM_P1;HPM_P2
2022/07/31 00:01:39;;;;;;;19.63;11.38;;;;;;;23.68;100.00;99734.91;5154860;27;20247;-75
2022/07/31 00:04:06;;;;;;;13.43;10.68;;;;;;;23.66;100.00;99741.16;5154276;27;20220;-74
2022/07/31 00:06:33;;;;;;;13.07;11.73;;;;;;;23.57;100.00;99746.88;5154837;27;20192;-74
2022/07/31 00:09:00;;;;;;;13.93;12.40;;;;;;;23.46;100.00;99743.84;5154047;27;20658;-75
2022/07/31 00:11:27;;;;;;;12.38;11.10;;;;;;;23.46;100.00;99742.06;5154787;27;20200;-74
2022/07/31 00:13:53;;;;;;;14.32;11.77;;;;;;;23.40;100.00;99755.50;5154343;27;20681;-76
2022/07/31 00:16:20;;;;;;;13.77;11.93;;;;;;;23.23;100.00;99742.97;5154308;27;20200;-76
2022/07/31 00:18:48;;;;;;;12.23;10.90;;;;;;;23.14;100.00;99738.09;5153050;27;20211;-76
2022/07/31 00:21:15;;;;;;;11.10;9.73;;;;;;;23.04;100.00;99755.28;5154108;27;20223;-74
2022/07/31 00:23:42;;;;;;;14.07;11.32;;;;;;;23.03;100.00;99744.75;5101325;27;20663;-74
2022/07/31 00:26:09;;;;;;;11.75;10.40;;;;;;;23.08;100.00;99735.69;5100552;27;20188;-73
2022/07/31 00:28:36;;;;;;;11.25;9.40;;;;;;;23.17;100.00;99748.53;5153885;27;20628;-74
2022/07/31 00:31:03;;;;;;;11.55;9.10;;;;;;;23.14;100.00;99751.31;5154175;27;20656;-74
2022/07/31 00:33:30;;;;;;;10.65;9.45;;;;;;;23.17;100.00;99759.13;5154662;27;20200;-73
2022/07/31 00:35:58;;;;;;;10.75;9.57;;;;;;;23.23;100.00;99763.28;5153920;27;20192;-73
2022/07/31 00:38:25;;;;;;;10.25;9.13;;;;;;;23.13;100.00;99762.81;5134146;27;20207;-73
2022/07/31 00:40:52;;;;;;;13.32;9.25;;;;;;;23.28;100.00;99763.09;5153917;27;20243;-74
2022/07/31 00:43:19;;;;;;;9.93;8.93;;;;;;;23.20;100.00;99769.56;5153201;27;20188;-74
2022/07/31 00:45:46;;;;;;;10.00;9.00;;;;;;;23.03;100.00;99742.97;5154429;27;20196;-74
2022/07/31 00:48:13;;;;;;;11.38;9.25;;;;;;;23.39;100.00;99771.44;5154011;27;20234;-76
2022/07/31 00:50:40;;;;;;;10.38;8.75;;;;;;;23.48;100.00;99766.66;5139542;27;20563;-73
2022/07/31 00:53:08;;;;;;;10.05;8.98;;;;;;;23.42;100.00;99766.06;5153681;27;20203;-73
2022/07/31 00:55:37;;;;;;;8.73;7.93;;;;;;;23.35;100.00;99751.31;5153809;27;20200;-72
2022/07/31 00:58:04;;;;;;;9.38;8.40;;;;;;;23.48;100.00;99763.13;5100909;27;20192;-72
2022/07/31 01:00:31;;;;;;;8.98;7.75;;;;;;;23.41;100.00;99759.91;5153153;27;20565;-73
2022/07/31 01:02:57;;;;;;;8.63;7.70;;;;;;;23.40;100.00;99762.59;5153762;27;20663;-73
2022/07/31 01:05:24;;;;;;;8.43;7.65;;;;;;;23.51;100.00;99773.59;5153018;27;20242;-73
2022/07/31 01:07:51;;;;;;;8.73;7.45;;;;;;;23.63;100.00;99778.38;5153437;27;20246;-72
2022/07/31 01:10:29;;;;;;;7.80;6.63;;;;;;;23.44;100.00;99737.72;5149806;27;20656;-73
2022/07/31 01:13:02;;;;;;;8.20;7.45;;;;;;;23.61;100.00;99769.66;5153944;27;20196;-73
2022/07/31 01:15:30;;;;;;;7.28;6.63;;;;;;;23.77;100.00;99788.34;5153210;27;20192;-72
2022/07/31 01:17:59;;;;;;;6.82;6.13;;;;;;;23.66;100.00;99788.81;5152802;27;20197;-73
2022/07/31 01:20:28;;;;;;;7.07;6.28;;;;;;;23.75;100.00;99783.16;5153125;27;20208;-73
2022/07/31 01:23:17;;;;;;;7.10;6.40;;;;;;;23.93;100.00;99786.78;5115858;27;20199;-72
2022/07/31 01:25:58;;;;;;;8.07;7.25;;;;;;;23.86;100.00;99772.94;5153584;27;20252;-73
2022/07/31 01:28:50;;;;;;;7.45;6.80;;;;;;;23.81;100.00;99774.06;5152829;27;20675;-73
2022/07/31 01:31:22;;;;;;;7.10;6.40;;;;;;;23.88;100.00;99778.16;5148856;27;20192;-72
2022/07/31 01:33:53;;;;;;;7.22;6.60;;;;;;;23.81;100.00;99774.94;5153179;27;20568;-72
2022/07/31 01:36:24;;;;;;;6.78;6.13;;;;;;;23.82;100.00;99758.13;5152984;27;20220;-73
2022/07/31 01:38:55;;;;;;;7.47;6.82;;;;;;;23.84;100.00;99750.09;5152463;27;20200;-73
2022/07/31 01:41:27;;;;;;;7.30;6.60;;;;;;;23.95;100.00;99759.28;5152539;27;20215;-73
2022/07/31 01:43:57;;;;;;;7.85;6.95;;;;;;;23.88;100.00;99754.31;5152670;27;20283;-73
2022/07/31 01:46:27;;;;;;;9.02;6.25;;;;;;;23.80;100.00;99752.00;5152768;27;20248;-72
2022/07/31 01:48:56;;;;;;;6.45;5.85;;;;;;;23.88;100.00;99755.19;5152279;27;20188;-73
2022/07/31 01:51:25;;;;;;;7.18;6.47;;;;;;;23.88;100.00;99741.09;5098929;27;20204;-73
2022/07/31 01:53:55;;;;;;;7.45;6.28;;;;;;;23.87;100.00;99734.91;5152293;27;20200;-73
2022/07/31 01:56:24;;;;;;;6.35;5.80;;;;;;;23.69;100.00;99735.72;5152864;27;20204;-71
2022/07/31 01:58:51;;;;;;;6.25;5.70;;;;;;;23.75;100.00;99735.50;5152389;27;20652;-73
2022/07/31 02:01:20;;;;;;;7.28;6.68;;;;;;;23.76;100.00;99737.19;5145149;27;20231;-73
2022/07/31 02:03:49;;;;;;;7.25;6.55;;;;;;;23.75;100.00;99737.28;5131794;27;20672;-74
2022/07/31 02:06:17;;;;;;;7.50;6.80;;;;;;;23.75;100.00;99734.63;5113711;27;20196;-73
2022/07/31 02:08:46;;;;;;;7.03;6.30;;;;;;;23.62;100.00;99734.28;5133935;27;20197;-74
2022/07/31 02:11:14;;;;;;;7.78;6.60;;;;;;;23.61;100.00;99714.94;5152797;27;20200;-73
2022/07/31 02:13:41;;;;;;;7.65;6.95;;;;;;;23.61;100.00;99733.44;5152591;27;20204;-74
2022/07/31 02:16:08;;;;;;;7.88;7.07;;;;;;;23.53;100.00;99729.41;5151878;27;20196;-74
2022/07/31 02:18:37;;;;;;;7.70;7.00;;;;;;;23.64;100.00;99727.16;5152670;27;20203;-74
2022/07/31 02:21:04;;;;;;;6.65;6.05;;;;;;;23.78;100.00;99722.09;5151851;27;20694;-73
2022/07/31 02:23:31;;;;;;;9.13;6.47;;;;;;;23.54;100.00;99721.38;5152414;27;20196;-75
2022/07/31 02:25:58;;;;;;;6.55;6.05;;;;;;;23.56;100.00;99721.31;5152195;27;20200;-74
2022/07/31 02:28:26;;;;;;;6.72;6.10;;;;;;;23.72;100.00;99724.16;5151912;27;20219;-74
2022/07/31 02:30:54;;;;;;;7.38;6.68;;;;;;;23.80;100.00;99722.88;5151780;27;20192;-75
2022/07/31 02:33:24;;;;;;;8.07;7.32;;;;;;;23.74;100.00;99706.41;5152112;27;20233;-74
2022/07/31 02:35:56;;;;;;;8.20;6.55;;;;;;;23.57;100.00;99723.91;5151791;27;20207;-75
2022/07/31 02:38:25;;;;;;;7.95;6.53;;;;;;;23.54;100.00;99715.25;5151360;27;20204;-75
2022/07/31 02:40:55;;;;;;;6.82;6.22;;;;;;;23.85;100.00;99735.94;5151214;27;20223;-75
2022/07/31 02:43:23;;;;;;;9.82;6.88;;;;;;;24.06;100.00;99750.84;5151979;27;20710;-74
2022/07/31 02:45:51;;;;;;;8.85;7.00;;;;;;;24.09;100.00;99746.28;5152056;27;20192;-74
2022/07/31 02:48:18;;;;;;;9.38;7.93;;;;;;;24.01;100.00;99743.09;5097468;27;20829;-73
2022/07/31 02:50:45;;;;;;;8.75;7.95;;;;;;;23.58;100.00;99722.13;5149890;27;20192;-74
2022/07/31 02:53:13;;;;;;;8.77;7.95;;;;;;;23.62;100.00;99736.94;5097064;27;20200;-75
2022/07/31 02:55:43;;;;;;;9.25;7.97;;;;;;;23.71;100.00;99731.25;5084189;27;20568;-74
2022/07/31 02:58:10;;;;;;;8.02;7.22;;;;;;;23.72;100.00;99730.34;5098815;27;20204;-73
2022/07/31 03:00:37;;;;;;;7.75;7.05;;;;;;;23.90;100.00;99726.00;5151695;27;20207;-74
2022/07/31 03:03:04;;;;;;;7.40;6.80;;;;;;;24.06;100.00;99727.88;5155453;27;20195;-74
2022/07/31 03:05:31;;;;;;;8.13;7.38;;;;;;;24.07;100.00;99726.09;5100803;27;20223;-74
2022/07/31 03:07:58;;;;;;;8.10;7.28;;;;;;;23.90;100.00;99702.16;5155111;27;20253;-74
2022/07/31 03:10:27;;;;;;;7.80;7.00;;;;;;;23.86;100.00;99727.94;5154623;27;20200;-74
2022/07/31 03:12:55;;;;;;;8.25;7.35;;;;;;;23.48;100.00;99652.84;5154298;27;20215;-74
2022/07/31 03:15:25;;;;;;;8.65;7.75;;;;;;;23.85;100.00;99723.56;5155615;27;20207;-74
2022/07/31 03:17:54;;;;;;;10.05;7.82;;;;;;;23.79;100.00;99739.72;5155779;27;20203;-74
2022/07/31 03:20:22;;;;;;;8.88;8.02;;;;;;;23.54;100.00;99731.97;5155143;27;20192;-73
2022/07/31 03:22:49;;;;;;;9.55;8.65;;;;;;;23.53;100.00;99721.47;5155622;27;20774;-73
2022/07/31 03:25:17;;;;;;;9.70;8.70;;;;;;;23.69;100.00;99720.72;5155105;27;20211;-72
2022/07/31 03:27:47;;;;;;;10.00;9.00;;;;;;;23.70;100.00;99721.59;5154402;27;20200;-72
2022/07/31 03:30:23;;;;;;;9.18;8.35;;;;;;;23.67;100.00;99724.38;5155458;27;20196;-72
2022/07/31 03:32:51;;;;;;;10.07;8.85;;;;;;;23.64;100.00;99728.03;5155265;27;21721;-72
2022/07/31 03:35:18;;;;;;;10.02;8.68;;;;;;;23.48;100.00;99723.44;5118181;27;20196;-73
2022/07/31 03:37:45;;;;;;;12.82;9.20;;;;;;;23.47;100.00;99734.97;5154148;27;20203;-74
2022/07/31 03:40:12;;;;;;;17.63;9.98;;;;;;;23.29;100.00;99733.94;5153812;27;20199;-74
2022/07/31 03:42:39;;;;;;;10.63;9.23;;;;;;;23.33;100.00;99737.31;5154215;27;20224;-73
2022/07/31 03:45:10;;;;;;;12.70;9.38;;;;;;;23.36;100.00;99708.06;5153081;27;20192;-73
2022/07/31 03:47:38;;;;;;;10.80;9.68;;;;;;;23.34;100.00;99726.66;5148467;27;20694;-74
2022/07/31 03:50:07;;;;;;;11.43;10.32;;;;;;;23.38;100.00;99740.59;5100001;27;20200;-73
2022/07/31 03:52:35;;;;;;;10.73;9.63;;;;;;;23.53;100.00;99747.94;5147412;27;20188;-73
2022/07/31 03:55:02;;;;;;;13.23;10.55;;;;;;;23.51;100.00;99757.72;5154584;27;20668;-74
2022/07/31 03:57:30;;;;;;;14.30;10.13;;;;;;;23.22;100.00;99698.94;5101402;27;20203;-73
2022/07/31 04:00:00;;;;;;;14.15;10.77;;;;;;;23.76;100.00;99763.66;5154496;27;20200;-74
2022/07/31 04:02:29;;;;;;;12.65;10.05;;;;;;;23.67;100.00;99758.78;5154852;27;20758;-75
2022/07/31 04:04:56;;;;;;;11.38;10.27;;;;;;;23.52;100.00;99748.84;5153024;27;20718;-74
2022/07/31 04:07:23;;;;;;;11.07;9.98;;;;;;;23.75;100.00;99775.19;5155034;27;20636;-73
2022/07/31 04:09:49;;;;;;;13.90;10.85;;;;;;;23.77;100.00;99781.28;5154548;27;20195;-75
2022/07/31 04:12:16;;;;;;;11.05;9.95;;;;;;;23.78;100.00;99753.88;5153538;27;20544;-75
2022/07/31 04:14:43;;;;;;;13.20;9.77;;;;;;;23.80;100.00;99770.53;5154730;27;20210;-75
2022/07/31 04:17:10;;;;;;;12.00;10.80;;;;;;;23.75;100.00;99779.63;5154478;27;20192;-76
2022/07/31 04:19:38;;;;;;;11.50;10.38;;;;;;;24.15;100.00;99782.28;5154234;27;20200;-75
2022/07/31 04:22:05;;;;;;;11.40;10.27;;;;;;;24.25;100.00;99783.56;5154579;27;20231;-76
2022/07/31 04:24:32;;;;;;;12.70;10.35;;;;;;;24.30;100.00;99786.00;5154745;27;20192;-76
2022/07/31 04:26:59;;;;;;;16.52;10.73;;;;;;;24.21;100.00;99771.41;5154332;27;20201;-75
2022/07/31 04:29:27;;;;;;;11.32;10.00;;;;;;;24.16;100.00;99790.13;5153946;27;20196;-75
2022/07/31 04:31:54;;;;;;;13.40;10.82;;;;;;;24.05;100.00;99797.66;5153392;27;20192;-76
2022/07/31 04:34:21;;;;;;;11.68;10.50;;;;;;;24.35;100.00;99790.16;5154487;27;20268;-75
2022/07/31 04:36:50;;;;;;;10.52;9.52;;;;;;;24.48;100.00;99793.09;5154099;27;20200;-77
2022/07/31 04:39:17;;;;;;;12.10;9.77;;;;;;;25.02;100.00;99798.47;5153778;27;20192;-74
2022/07/31 04:41:44;;;;;;;10.77;9.70;;;;;;;25.31;100.00;99798.84;5154319;27;20220;-79
2022/07/31 04:44:11;;;;;;;10.85;9.70;;;;;;;25.10;100.00;99798.09;5153729;27;20199;-73
2022/07/31 04:46:38;;;;;;;11.48;9.65;;;;;;;25.17;100.00;99792.44;5154357;27;20204;-76
2022/07/31 04:49:04;;;;;;;11.80;10.70;;;;;;;25.03;100.00;99808.16;5153595;27;20211;-76
2022/07/31 04:51:31;;;;;;;11.15;9.98;;;;;;;25.05;100.00;99811.59;5153548;27;20252;-78
2022/07/31 04:53:59;;;;;;;10.63;9.63;;;;;;;25.03;100.00;99805.50;5154265;27;20200;-73
2022/07/31 04:56:41;;;;;;;16.77;11.07;;;;;;;25.09;100.00;99783.13;5154202;27;20607;-76
2022/07/31 04:59:11;;;;;;;12.25;10.50;;;;;;;25.64;100.00;99813.13;5153691;27;20292;-78
2022/07/31 05:01:39;;;;;;;11.20;9.70;;;;;;;25.64;100.00;99823.75;5153288;27;20227;-78
2022/07/31 05:04:07;;;;;;;10.77;9.45;;;;;;;25.71;100.00;99830.47;5153566;27;20234;-77
2022/07/31 05:06:39;;;;;;;14.85;11.32;;;;;;;25.40;100.00;99824.94;5153740;27;20188;-76
2022/07/31 05:09:09;;;;;;;14.70;10.82;;;;;;;25.66;100.00;99811.22;5097719;27;20204;-77
2022/07/31 05:11:37;;;;;;;13.07;11.07;;;;;;;25.81;100.00;99834.34;5113385;27;20572;-73
2022/07/31 05:14:06;;;;;;;14.45;11.23;;;;;;;26.81;100.00;99846.75;5153487;27;20718;-75
2022/07/31 05:16:34;;;;;;;11.55;10.43;;;;;;;27.83;100.00;99845.28;5152144;27;20207;-75
2022/07/31 05:19:02;;;;;;;11.40;10.18;;;;;;;28.18;100.00;99850.38;5153415;27;20797;-76
2022/07/31 05:21:29;;;;;;;15.43;9.32;;;;;;;28.94;100.00;99867.78;5153110;27;20200;-75
2022/07/31 05:23:57;;;;;;;12.73;10.43;;;;;;;29.74;100.00;99873.19;5152192;27;20671;-72
2022/07/31 05:26:27;;;;;;;10.82;9.73;;;;;;;29.83;100.00;99880.59;5152787;27;20192;-72
2022/07/31 05:28:56;;;;;;;10.32;9.13;;;;;;;29.42;100.00;99874.50;5152433;27;20188;-73
2022/07/31 05:31:24;;;;;;;10.93;9.90;;;;;;;29.69;100.00;99869.97;5152605;27;20191;-74
2022/07/31 05:33:51;;;;;;;11.40;10.20;;;;;;;29.52;100.00;99880.94;5152483;27;20286;-76
2022/07/31 05:38:59;;;;;;;16.17;10.43;;;;;;;29.48;100.00;99890.09;5107261;27;20547;-73
2022/07/31 05:41:26;;;;;;;11.35;10.15;;;;;;;29.16;100.00;99883.28;5107997;28;20672;-75
2022/07/31 05:43:52;;;;;;;10.18;9.25;;;;;;;28.84;100.00;99878.22;5108246;28;20212;-73
2022/07/31 05:46:19;;;;;;;13.38;9.98;;;;;;;28.45;100.00;99886.00;5106739;28;20193;-72
2022/07/31 05:48:46;;;;;;;11.48;10.27;;;;;;;28.10;100.00;99892.63;5107214;28;20701;-71
2022/07/31 05:51:13;;;;;;;15.27;11.25;;;;;;;27.36;100.00;99887.16;5068074;28;20205;-73
2022/07/31 05:53:41;;;;;;;11.48;10.25;;;;;;;27.41;100.00;99885.06;5087614;28;20198;-73
2022/07/31 05:56:09;;;;;;;11.45;10.35;;;;;;;27.61;100.00;99882.16;5098730;28;20684;-72
2022/07/31 05:58:36;;;;;;;16.02;10.90;;;;;;;27.08;100.00;99893.16;5060449;28;20658;-72
2022/07/31 06:01:04;;;;;;;14.23;11.48;;;;;;;26.57;100.00;99884.41;5103487;28;20213;-72
2022/07/31 06:03:34;;;;;;;18.80;11.68;;;;;;;26.40;100.00;99888.88;5071669;28;20190;-72
2022/07/31 06:06:02;;;;;;;19.30;12.80;;;;;;;26.65;100.00;99854.69;5106604;28;20673;-72
2022/07/31 06:08:29;;;;;;;14.10;10.93;;;;;;;27.13;100.00;99895.56;5107673;28;20221;-72
2022/07/31 06:10:56;;;;;;;12.95;11.63;;;;;;;27.25;100.00;99873.59;5104825;28;20204;-72
2022/07/31 06:13:26;;;;;;;15.68;11.18;;;;;;;27.50;100.00;99888.09;5107452;28;20198;-72
2022/07/31 06:15:54;;;;;;;12.88;10.20;;;;;;;27.37;100.00;99868.41;5107051;28;20717;-72
2022/07/31 06:18:21;;;;;;;12.75;11.45;;;;;;;27.20;100.00;99875.63;5089195;28;20218;-73
2022/07/31 06:20:48;;;;;;;12.48;11.18;;;;;;;26.55;100.00;99864.13;5101649;28;20214;-73
2022/07/31 06:23:15;;;;;;;14.02;11.93;;;;;;;26.76;100.00;99886.91;5098059;28;20201;-72
2022/07/31 06:25:42;;;;;;;13.02;11.70;;;;;;;26.85;100.00;99883.78;5104262;28;20644;-73
2022/07/31 06:28:09;;;;;;;12.35;11.05;;;;;;;26.55;100.00;99872.09;5105816;28;20213;-73
2022/07/31 06:30:37;;;;;;;13.32;11.93;;;;;;;26.43;100.00;99873.63;5070698;28;20540;-72
2022/07/31 06:33:04;;;;;;;16.17;12.95;;;;;;;25.77;100.00;99872.63;5106034;28;20201;-73
2022/07/31 06:35:31;;;;;;;13.82;12.35;;;;;;;26.05;100.00;99853.47;5061111;28;20194;-73
2022/07/31 06:37:58;;;;;;;14.38;12.70;;;;;;;26.52;100.00;99882.91;5106719;28;20237;-74
2022/07/31 06:40:25;;;;;;;12.93;11.63;;;;;;;26.60;100.00;99880.72;5097072;27;20205;-73
2022/07/31 06:42:52;;;;;;;13.93;12.52;;;;;;;26.64;100.00;99871.63;5104141;28;20202;-72
2022/07/31 06:45:19;;;;;;;14.32;12.50;;;;;;;26.78;100.00;99810.53;5098472;28;20205;-72
2022/07/31 06:47:47;;;;;;;17.30;13.65;;;;;;;27.54;100.00;99884.31;5080818;28;20218;-72
2022/07/31 06:50:14;;;;;;;14.30;12.90;;;;;;;27.16;100.00;99860.78;5087654;28;20195;-72
2022/07/31 06:52:41;;;;;;;13.85;12.38;;;;;;;27.59;100.00;99890.25;5088624;28;20313;-72
2022/07/31 06:55:09;;;;;;;15.23;13.60;;;;;;;27.09;100.00;99892.22;5040049;28;20545;-72
2022/07/31 06:57:37;;;;;;;16.70;13.27;;;;;;;27.15;100.00;99891.03;5084859;28;20209;-73
2022/07/31 07:00:05;;;;;;;15.38;13.75;;;;;;;27.02;100.00;99893.50;5087093;28;20213;-72
2022/07/31 07:02:32;;;;;;;15.90;14.30;;;;;;;27.24;100.00;99887.84;5089065;28;20267;-72
2022/07/31 07:05:00;;;;;;;16.98;13.88;;;;;;;27.61;100.00;99892.81;5091303;28;20654;-73
2022/07/31 07:07:27;;;;;;;15.23;13.70;;;;;;;27.71;100.00;99891.34;5079797;28;20225;-73
2022/07/31 07:09:54;;;;;;;15.10;13.05;;;;;;;27.74;100.00;99872.50;5087713;28;20557;-73
2022/07/31 07:12:21;;;;;;;18.98;13.93;;;;;;;27.30;100.00;99888.34;5077851;28;20213;-72
2022/07/31 07:14:48;;;;;;;18.92;14.30;;;;;;;27.35;100.00;99885.44;5089028;28;20198;-72
2022/07/31 07:17:16;;;;;;;17.80;15.90;;;;;;;27.24;100.00;99878.06;5069333;28;20191;-72
2022/07/31 07:19:43;;;;;;;15.65;13.88;;;;;;;27.34;100.00;99857.06;5090590;28;20218;-72
2022/07/31 07:22:11;;;;;;;20.08;15.55;;;;;;;27.42;100.00;99878.81;5085844;28;20209;-72
2022/07/31 07:24:38;;;;;;;19.15;14.82;;;;;;;27.57;100.00;99875.31;5083823;28;20213;-72
2022/07/31 07:27:05;;;;;;;20.35;15.38;;;;;;;27.99;100.00;99872.75;5073059;28;20567;-73
2022/07/31 07:29:31;;;;;;;25.90;18.33;;;;;;;28.03;100.00;99879.63;5078744;28;20214;-70
2022/07/31 07:31:58;;;;;;;19.92;13.70;;;;;;;27.82;100.00;99861.41;5082354;28;20198;-72
2022/07/31 07:34:25;;;;;;;18.08;14.27;;;;;;;27.77;100.00;99851.00;5037809;28;20248;-73
2022/07/31 07:36:52;;;;;;;18.00;14.52;;;;;;;28.04;100.00;99876.00;5077755;28;20236;-73
2022/07/31 07:39:21;;;;;;;19.17;14.70;;;;;;;28.23;100.00;99880.25;5081585;28;20293;-72
2022/07/31 07:41:48;;;;;;;17.42;14.02;;;;;;;28.25;100.00;99881.03;5073617;28;20202;-71
2022/07/31 07:44:15;;;;;;;19.38;15.52;;;;;;;28.04;100.00;99878.66;5078452;28;20618;-70
2022/07/31 07:46:42;;;;;;;19.70;14.70;;;;;;;27.93;100.00;99878.44;5076360;28;20203;-71
2022/07/31 07:49:08;;;;;;;17.60;15.25;;;;;;;28.04;100.00;99883.13;5075543;28;20854;-76
2022/07/31 07:51:35;;;;;;;15.55;11.27;;;;;;;27.55;100.00;99883.38;5054843;28;20207;-76
2022/07/31 07:54:02;;;;;;;18.23;14.55;;;;;;;27.64;100.00;99879.31;5076456;28;20198;-73
2022/07/31 07:56:30;;;;;;;15.98;13.93;;;;;;;27.42;100.00;99854.84;5051943;28;20203;-72
2022/07/31 07:58:57;;;;;;;15.18;13.07;;;;;;;27.57;100.00;99881.47;5051685;28;20225;-71
2022/07/31 08:01:25;;;;;;;19.65;14.07;;;;;;;27.81;100.00;99863.19;5071901;28;20207;-71
2022/07/31 08:03:51;;;;;;;15.13;12.93;;;;;;;27.90;100.00;99875.97;5085903;28;20614;-72
2022/07/31 08:06:19;;;;;;;14.73;13.07;;;;;;;28.32;100.00;99885.03;5041578;28;20214;-74
2022/07/31 08:08:46;;;;;;;16.63;14.13;;;;;;;28.22;100.00;99868.72;5072233;28;20230;-72
2022/07/31 08:11:13;;;;;;;18.92;14.30;;;;;;;28.70;100.00;99880.88;5070650;28;20566;-72
2022/07/31 08:13:41;;;;;;;13.48;12.07;;;;;;;28.18;100.00;99882.34;5074484;28;20580;-71
2022/07/31 08:16:08;;;;;;;17.30;13.95;;;;;;;27.81;100.00;99857.88;5070798;28;20689;-72
2022/07/31 08:18:34;;;;;;;14.07;12.63;;;;;;;27.78;100.00;99878.50;5072992;28;20217;-71
2022/07/31 08:21:01;;;;;;;19.02;12.77;;;;;;;27.98;100.00;99879.03;5079650;28;20210;-72
2022/07/31 08:23:28;;;;;;;16.15;12.32;;;;;;;28.00;100.00;99879.78;5072484;28;20214;-72
2022/07/31 08:25:55;;;;;;;13.98;12.48;;;;;;;28.34;100.00;99883.13;5071089;28;20203;-72
2022/07/31 08:28:24;;;;;;;14.60;13.10;;;;;;;29.01;99.96;99880.66;5090002;28;20234;-72
2022/07/31 08:33:43;;;;;;;14.57;12.82;;;;;;;28.52;100.00;99879.34;5080973;28;20559;-73
2022/07/31 08:36:10;;;;;;;14.25;12.85;;;;;;;28.39;100.00;99871.25;5062741;28;20737;-72
2022/07/31 08:38:37;;;;;;;14.65;12.07;;;;;;;28.52;100.00;99874.84;5025008;28;20203;-73
2022/07/31 08:41:04;;;;;;;15.63;12.57;;;;;;;28.73;100.00;99867.34;5061338;28;20289;-73
2022/07/31 08:43:31;;;;;;;14.18;12.10;;;;;;;29.11;98.86;99869.41;5061205;28;20235;-73
2022/07/31 08:46:01;;;;;;;13.55;12.15;;;;;;;29.13;99.33;99862.13;5065277;28;20230;-73
2022/07/31 08:48:32;;;;;;;85.90;46.17;;;;;;;29.28;95.88;99867.38;5062239;28;20718;-71
2022/07/31 08:51:03;;;;;;;13.27;11.88;;;;;;;29.26;96.68;99850.56;5065588;28;20199;-73
2022/07/31 08:53:31;;;;;;;13.52;12.15;;;;;;;29.03;100.00;99852.06;5061265;28;20948;-74
2022/07/31 08:55:59;;;;;;;12.80;11.27;;;;;;;28.98;98.68;99859.50;5063985;28;20640;-73
2022/07/31 08:58:25;;;;;;;13.38;12.00;;;;;;;28.97;99.97;99860.44;5063768;28;20199;-73
2022/07/31 09:00:53;;;;;;;13.65;11.57;;;;;;;29.41;96.39;99854.06;5061376;28;20216;-71
2022/07/31 09:03:20;;;;;;;13.82;12.25;;;;;;;29.04;94.63;99783.47;5064529;28;20229;-71
2022/07/31 09:05:47;;;;;;;12.82;11.63;;;;;;;29.78;90.67;99847.97;5064737;28;20202;-73
2022/07/31 09:08:15;;;;;;;12.57;11.38;;;;;;;29.82;90.10;99841.44;5065441;28;20211;-73
2022/07/31 09:10:42;;;;;;;12.88;11.45;;;;;;;30.04;86.70;99850.72;5063220;28;20199;-74
2022/07/31 09:13:13;;;;;;;12.02;10.82;;;;;;;29.50;90.16;99821.41;5065605;28;20289;-74
2022/07/31 09:15:40;;;;;;;12.02;10.68;;;;;;;29.52;89.80;99839.03;5063858;28;21384;-75
2022/07/31 09:18:16;;;;;;;12.65;11.18;;;;;;;29.53;90.50;99850.59;5065730;28;20207;-75
2022/07/31 09:20:54;;;;;;;12.60;11.00;;;;;;;29.73;92.79;99820.69;5062837;28;20203;-74
2022/07/31 09:23:22;;;;;;;11.85;10.65;;;;;;;30.41;87.08;99841.84;5065348;28;20312;-74
2022/07/31 09:25:54;;;;;;;11.85;10.65;;;;;;;30.37;85.30;99837.66;5064934;28;20202;-75
2022/07/31 09:28:21;;;;;;;12.15;11.02;;;;;;;29.87;87.60;99831.34;5040430;28;20213;-75
2022/07/31 09:30:54;;;;;;;12.05;10.95;;;;;;;29.78;89.02;99823.94;5065358;28;20209;-74
2022/07/31 09:33:21;;;;;;;14.57;11.82;;;;;;;29.85;88.90;99830.59;5065451;28;20254;-75
2022/07/31 09:35:48;;;;;;;12.32;11.13;;;;;;;29.75;89.07;99824.09;5065932;28;20242;-76
2022/07/31 09:38:15;;;;;;;12.10;10.80;;;;;;;29.61;88.90;99818.84;5061520;28;20206;-75
2022/07/31 09:40:44;;;;;;;16.25;10.55;;;;;;;29.93;87.07;99820.22;5065135;28;20667;-75
2022/07/31 09:43:15;;;;;;;11.48;10.38;;;;;;;29.92;86.20;99810.50;5062366;28;20227;-75
2022/07/31 09:45:44;;;;;;;11.98;10.77;;;;;;;29.98;86.27;99817.22;5050390;28;20206;-74
2022/07/31 09:48:12;;;;;;;12.43;10.48;;;;;;;30.04;86.16;99802.59;5051833;28;20253;-77
2022/07/31 09:50:39;;;;;;;10.50;9.50;;;;;;;30.12;82.10;99811.78;5051711;28;20211;-75
2022/07/31 09:53:06;;;;;;;10.75;9.75;;;;;;;29.90;83.26;99812.41;5052458;28;20682;-75
2022/07/31 09:55:33;;;;;;;10.20;9.25;;;;;;;29.73;85.38;99801.97;5052237;28;20226;-77
2022/07/31 09:58:01;;;;;;;10.60;9.57;;;;;;;29.81;84.23;99807.66;5056645;28;20195;-76
2022/07/31 10:00:28;;;;;;;10.90;9.50;;;;;;;30.12;83.39;99810.91;5052612;28;20290;-73
2022/07/31 10:02:57;;;;;;;11.10;9.02;;;;;;;30.35;80.53;99797.66;5051929;28;20215;-76
2022/07/31 10:05:25;;;;;;;9.25;8.45;;;;;;;30.76;77.99;99799.19;5032086;28;20203;-76
2022/07/31 10:07:56;;;;;;;10.90;8.55;;;;;;;31.00;77.28;99804.63;5051744;28;20679;-75
2022/07/31 10:10:24;;;;;;;10.30;8.57;;;;;;;31.22;75.98;99802.91;5049822;28;20288;-74
2022/07/31 10:12:54;;;;;;;9.40;8.35;;;;;;;30.96;76.08;99799.44;5050946;28;20209;-74
2022/07/31 10:15:25;;;;;;;9.45;8.48;;;;;;;30.90;76.16;99789.19;5051425;28;20210;-73
2022/07/31 10:17:54;;;;;;;10.18;9.02;;;;;;;30.66;77.12;99772.25;5051336;28;20207;-73
2022/07/31 10:20:24;;;;;;;8.85;8.05;;;;;;;30.43;77.48;99787.25;5049800;28;20221;-77
2022/07/31 10:22:56;;;;;;;9.73;8.82;;;;;;;30.67;76.68;99798.06;5049345;28;20215;-75
2022/07/31 10:25:26;;;;;;;8.15;7.30;;;;;;;30.79;75.16;99789.13;5051253;28;20284;-81
2022/07/31 10:27:53;;;;;;;8.98;8.07;;;;;;;30.65;75.23;99789.25;5051715;28;20203;-78
2022/07/31 10:30:22;;;;;;;8.93;7.90;;;;;;;30.58;77.74;99796.03;5044958;28;20284;-75
2022/07/31 10:32:50;;;;;;;12.48;9.75;;;;;;;30.08;82.17;99799.56;5051628;28;20313;-78
2022/07/31 10:35:18;;;;;;;11.40;9.68;;;;;;;29.91;84.31;99792.72;5051403;28;20194;-79
2022/07/31 10:37:56;;;;;;;10.70;9.60;;;;;;;29.91;86.15;99792.72;5032325;28;20238;-77
2022/07/31 10:40:29;;;;;;;9.88;8.88;;;;;;;29.73;85.07;99788.63;5049473;28;20217;-74
2022/07/31 10:43:13;;;;;;;9.77;7.68;;;;;;;30.02;82.19;99784.81;5048531;28;20230;-73
2022/07/31 10:45:47;;;;;;;7.18;6.57;;;;;;;30.42;77.56;99782.03;5046038;28;20210;-74
2022/07/31 10:48:14;;;;;;;6.03;5.53;;;;;;;30.58;75.95;99782.63;5050936;28;20286;-75
2022/07/31 10:50:42;;;;;;;6.35;5.75;;;;;;;30.64;72.76;99779.53;5048791;28;20659;-76
2022/07/31 10:53:10;;;;;;;4.45;4.07;;;;;;;30.19;69.95;99785.44;5046443;28;20674;-73
2022/07/31 10:55:37;;;;;;;5.38;4.88;;;;;;;30.21;71.39;99778.19;5044241;28;20192;-73
2022/07/31 10:58:09;;;;;;;4.85;4.50;;;;;;;30.21;72.95;99772.84;5041050;28;20573;-73
2022/07/31 11:00:36;;;;;;;4.78;4.38;;;;;;;30.52;72.96;99776.88;5040707;28;20656;-72
2022/07/31 11:03:19;;;;;;;4.97;4.57;;;;;;;30.55;70.89;99764.13;5046714;28;20226;-75
2022/07/31 11:05:53;;;;;;;5.10;4.80;;;;;;;30.16;71.59;99726.81;5034443;28;20211;-78
2022/07/31 11:08:20;;;;;;;7.00;4.85;;;;;;;30.22;72.52;99764.69;5042815;28;20296;-78
2022/07/31 11:10:50;;;;;;;4.55;4.25;;;;;;;30.31;71.77;99763.19;5042606;28;20200;-72
2022/07/31 11:13:17;;;;;;;4.50;4.20;;;;;;;30.46;69.22;99778.19;5042295;28;20647;-72
2022/07/31 11:15:44;;;;;;;7.32;4.95;;;;;;;29.94;69.58;99771.13;5039072;28;20203;-73
2022/07/31 11:18:11;;;;;;;5.65;4.20;;;;;;;29.54;69.39;99743.56;5043807;28;20575;-73
2022/07/31 11:20:41;;;;;;;3.45;3.25;;;;;;;29.77;68.78;99782.09;5046344;28;20211;-73
2022/07/31 11:23:08;;;;;;;4.18;3.80;;;;;;;29.45;68.73;99789.63;5036356;28;20224;-74
2022/07/31 11:25:36;;;;;;;4.88;4.47;;;;;;;29.62;69.68;99775.13;5047630;28;20291;-73
2022/07/31 11:28:14;;;;;;;4.70;4.30;;;;;;;29.39;68.05;99781.19;5050244;28;20252;-73